Terminal Aerodrome Forecast
Issued by NWS Grand Forks, ND

Home | Current Version | Previous Version | Text Only | Print | Product List | Glossary Off
Versions: 1 2 3 4 5 6 7 8 9 10 11 12 13 14 15 16 17 18 19 20 21

000
FTUS43 KFGF 160844 AAA
TAFFAR
TAF AMD
KFAR 160844Z 1609/1706 12006KT P6SM VCSH OVC090
      TEMPO 1609/1612 -SHRA BKN040
     FM161200 13006KT P6SM -SHRA OVC035
     FM161400 14006KT P6SM -SHRA OVC015
     FM170300 36006KT P6SM SCT030=

USA.gov is the U.S. government's official web portal to all federal, state and local government web resources and services.